createdAt,value
2022-08-12T00:00:00.802Z,95351.22
2022-08-12T00:02:46.447Z,95352.78
2022-08-12T00:05:33.650Z,95319.22
2022-08-12T00:08:28.659Z,95343.09
2022-08-12T00:11:21.360Z,95345.06
2022-08-12T00:14:06.672Z,95348.59
2022-08-12T00:16:54.048Z,95354.44
2022-08-12T00:19:39.354Z,95357.59
2022-08-12T00:22:26.171Z,95352.88
2022-08-12T00:25:17.007Z,95355.59
2022-08-12T00:28:02.699Z,95349.34
2022-08-12T00:30:48.348Z,95350.97
2022-08-12T00:33:38.594Z,95352.13
2022-08-12T00:36:43.643Z,95341.97
2022-08-12T00:39:30.899Z,95323.22
2022-08-12T00:42:11.086Z,95317.34
2022-08-12T00:44:43.237Z,95343.50
2022-08-12T00:47:24.657Z,95347.81
2022-08-12T00:49:55.741Z,95345.06
2022-08-12T00:52:25.265Z,95340.38
2022-08-12T00:54:57.046Z,95311.44
2022-08-12T00:57:27.322Z,95294.22
2022-08-12T00:59:57.887Z,95346.25
2022-08-12T01:02:27.759Z,95346.28
2022-08-12T01:05:16.202Z,95348.25
2022-08-12T01:08:03.570Z,95344.31
2022-08-12T01:10:51.440Z,95347.47
2022-08-12T01:13:20.701Z,95360.75
2022-08-12T01:15:51.393Z,95353.72
2022-08-12T01:18:21.292Z,95336.88
2022-08-12T01:21:00.514Z,95359.97
2022-08-12T01:23:52.148Z,95364.69
2022-08-12T01:26:24.404Z,95360.75
2022-08-12T01:28:58.667Z,95364.69
2022-08-12T01:31:29.294Z,95363.91
2022-08-12T01:34:04.548Z,95355.66
2022-08-12T01:36:40.746Z,95363.09
2022-08-12T01:39:10.128Z,95356.06
2022-08-12T01:41:44.893Z,95223.06
2022-08-12T01:44:22.955Z,95358.44
2022-08-12T01:47:05.780Z,95351.75
2022-08-12T01:49:51.653Z,95351.78
2022-08-12T01:52:38.584Z,95351.38
2022-08-12T01:55:08.184Z,95352.53
2022-08-12T01:57:59.209Z,95361.97
2022-08-12T02:00:44.937Z,95350.97
2022-08-12T02:04:01.775Z,95352.94
2022-08-12T02:06:56.123Z,95351.34
2022-08-12T02:10:00.207Z,95357.59
2022-08-12T02:12:48.462Z,95350.53
2022-08-12T02:15:28.683Z,95351.28
2022-08-12T02:18:12.717Z,95351.69
2022-08-12T02:20:52.762Z,95310.56
2022-08-12T02:23:27.049Z,95332.50
2022-08-12T02:25:59.458Z,95328.59
2022-08-12T02:28:29.165Z,95327.91
2022-08-12T02:31:02.873Z,95309.91
2022-08-12T02:33:31.629Z,95352.94
2022-08-12T02:36:01.922Z,95312.28
2022-08-12T02:38:32.297Z,95349.03
2022-08-12T02:41:04.865Z,95338.47
2022-08-12T02:43:38.398Z,95350.19
2022-08-12T02:46:13.755Z,95247.28
2022-08-12T02:48:47.225Z,95349.81
2022-08-12T02:51:19.436Z,95349.78
2022-08-12T02:54:03.316Z,95356.44
2022-08-12T02:56:37.651Z,95339.56
2022-08-12T02:59:12.281Z,95349.72
2022-08-12T03:01:47.891Z,95343.44
2022-08-12T03:04:24.465Z,95348.53
2022-08-12T03:07:02.153Z,95344.63
2022-08-12T03:09:53.525Z,95161.25
2022-08-12T03:12:25.297Z,95352.00
2022-08-12T03:14:56.225Z,95174.88
2022-08-12T03:17:30.461Z,95289.81
2022-08-12T03:20:10.104Z,95323.47
2022-08-12T03:22:40.824Z,95350.03
2022-08-12T03:25:17.225Z,95224.22
2022-08-12T03:27:49.840Z,95359.16
2022-08-12T03:30:20.735Z,95360.75
2022-08-12T03:32:50.787Z,95354.91
2022-08-12T03:35:40.894Z,95360.41
2022-08-12T03:38:16.265Z,95365.47
2022-08-12T03:41:15.365Z,95360.75
2022-08-12T03:44:10.674Z,95359.19
2022-08-12T03:47:00.714Z,95325.09
2022-08-12T03:49:46.390Z,95334.06
2022-08-12T03:52:31.823Z,95368.47
2022-08-12T03:55:17.510Z,95372.72
2022-08-12T03:58:03.218Z,95376.19
2022-08-12T04:00:31.946Z,95391.06
2022-08-12T04:03:01.970Z,95385.16
2022-08-12T04:05:54.694Z,95313.06
2022-08-12T04:08:22.552Z,95364.69
2022-08-12T04:11:08.217Z,95390.16
2022-08-12T04:13:36.147Z,95381.59
2022-08-12T04:16:07.940Z,95382.34
2022-08-12T04:18:38.804Z,95380.81
2022-08-12T04:21:10.373Z,95363.56
2022-08-12T04:23:47.677Z,95386.66
2022-08-12T04:26:16.640Z,95382.31
2022-08-12T04:28:44.892Z,95387.00
2022-08-12T04:31:14.234Z,95381.59
2022-08-12T04:33:44.148Z,95390.97
2022-08-12T04:36:12.168Z,95351.47
2022-08-12T04:38:40.116Z,95286.38
2022-08-12T04:41:10.888Z,95320.44
2022-08-12T04:43:54.489Z,95363.13
2022-08-12T04:46:33.526Z,95373.63
2022-08-12T04:49:05.156Z,95376.38
2022-08-12T04:51:34.190Z,95384.13
2022-08-12T04:54:03.067Z,95379.88
2022-08-12T04:56:35.397Z,95299.16
2022-08-12T04:59:04.987Z,95365.81
2022-08-12T05:01:32.908Z,95300.00
2022-08-12T05:04:02.874Z,95360.28
2022-08-12T05:06:32.781Z,95377.13
2022-08-12T05:09:01.412Z,95368.84
2022-08-12T05:11:29.439Z,95375.13
2022-08-12T05:14:00.163Z,95388.84
2022-08-12T05:16:32.413Z,95292.09
2022-08-12T05:19:02.437Z,95389.78
2022-08-12T05:21:32.021Z,95388.28
2022-08-12T05:24:00.101Z,95367.53
2022-08-12T05:26:29.452Z,95380.84
2022-08-12T05:28:57.390Z,95389.56
2022-08-12T05:31:47.486Z,95387.63
2022-08-12T05:34:15.638Z,95397.41
2022-08-12T05:36:45.096Z,95398.16
2022-08-12T05:39:13.269Z,95398.53
2022-08-12T05:41:41.836Z,95393.84
2022-08-12T05:44:12.714Z,95393.50
2022-08-12T05:46:41.229Z,95393.50
2022-08-12T05:49:10.035Z,95397.41
2022-08-12T05:51:40.762Z,95404.47
2022-08-12T05:54:12.237Z,95374.25
2022-08-12T05:56:41.633Z,95385.28
2022-08-12T05:59:12.141Z,95405.66
2022-08-12T06:02:11.407Z,95395.94
2022-08-12T06:04:29.745Z,95403.38
2022-08-12T06:06:57.880Z,95358.38
2022-08-12T06:09:28.706Z,95392.06
2022-08-12T06:12:06.248Z,95378.38
2022-08-12T06:14:37.765Z,95400.69
2022-08-12T06:17:08.648Z,95333.38
2022-08-12T06:20:26.632Z,95336.91
2022-08-12T06:22:24.535Z,95342.00
2022-08-12T06:24:53.983Z,95345.91
2022-08-12T06:27:22.073Z,95301.28
2022-08-12T06:30:10.253Z,95344.75
2022-08-12T06:32:42.731Z,95371.75
2022-08-12T06:35:23.027Z,95376.44
2022-08-12T06:37:57.632Z,95400.31
2022-08-12T06:40:46.226Z,95407.75
2022-08-12T06:43:14.301Z,95389.72
2022-08-12T06:45:47.349Z,95403.78
2022-08-12T06:48:16.502Z,95400.25
2022-08-12T06:50:46.087Z,95390.78
2022-08-12T06:53:14.087Z,95384.84
2022-08-12T06:55:57.782Z,95391.81
2022-08-12T06:58:27.415Z,95375.19
2022-08-12T07:00:56.061Z,95332.59
2022-08-12T07:03:28.012Z,95321.19
2022-08-12T07:05:58.324Z,95335.88
2022-08-12T07:08:29.070Z,95391.06
2022-08-12T07:11:01.261Z,95380.44
2022-08-12T07:13:30.926Z,95357.28
2022-08-12T07:15:59.639Z,95376.47
2022-08-12T07:18:32.904Z,95386.41
2022-08-12T07:21:04.068Z,95390.09
2022-08-12T07:23:33.509Z,95312.94
2022-08-12T07:26:05.529Z,95396.19
2022-08-12T07:28:37.022Z,95333.41
2022-08-12T07:31:07.963Z,95390.56
2022-08-12T07:33:39.450Z,95397.00
2022-08-12T07:36:12.028Z,95385.03
2022-08-12T07:38:43.785Z,95189.50
2022-08-12T07:41:17.362Z,95337.22
2022-08-12T07:43:47.933Z,95375.50
2022-08-12T07:46:19.925Z,95376.53
2022-08-12T07:48:49.991Z,95333.38
2022-08-12T07:51:25.414Z,95375.84
2022-08-12T07:54:03.262Z,95267.75
2022-08-12T07:56:33.068Z,95371.19
2022-08-12T07:59:01.481Z,95369.50
2022-08-12T08:01:29.940Z,95364.72
2022-08-12T08:04:19.054Z,95298.34
2022-08-12T08:06:49.109Z,95331.41
2022-08-12T08:09:21.249Z,95369.34
2022-08-12T08:12:19.129Z,95314.28
2022-08-12T08:14:50.138Z,95352.25
2022-08-12T08:17:18.591Z,95364.69
2022-08-12T08:20:03.606Z,95357.25
2022-08-12T08:22:40.756Z,95356.81
2022-08-12T08:25:35.683Z,95355.91
2022-08-12T08:28:01.555Z,95330.22
2022-08-12T08:30:30.690Z,95360.66
2022-08-12T08:32:58.637Z,95351.00
2022-08-12T08:35:31.218Z,95311.81
2022-08-12T08:38:19.831Z,95321.91
2022-08-12T08:42:15.531Z,95288.00
2022-08-12T08:44:11.058Z,95348.03
2022-08-12T08:46:39.853Z,95332.59
2022-08-12T08:49:08.699Z,95337.84
2022-08-12T08:51:37.357Z,95335.38
2022-08-12T08:54:06.886Z,95336.56
2022-08-12T08:56:36.280Z,95325.72
2022-08-12T08:59:04.798Z,95213.09
2022-08-12T09:01:37.194Z,95321.03
2022-08-12T09:05:08.301Z,95335.72
2022-08-12T09:06:56.701Z,95294.81
2022-08-12T09:09:25.006Z,95329.69
2022-08-12T09:12:54.304Z,95284.13
2022-08-12T09:17:59.157Z,95312.78
2022-08-12T09:20:30.579Z,95320.56
2022-08-12T09:22:59.393Z,95262.81
2022-08-12T09:25:33.577Z,95322.59
2022-08-12T09:28:05.021Z,95325.91
2022-08-12T09:30:42.281Z,95315.47
2022-08-12T09:34:24.769Z,95323.25
2022-08-12T09:36:04.984Z,95315.09
2022-08-12T09:38:35.474Z,95305.97
2022-08-12T09:42:33.503Z,95303.00
2022-08-12T09:44:37.927Z,95268.28
2022-08-12T09:47:03.079Z,95252.66
2022-08-12T09:49:42.523Z,95316.13
2022-08-12T09:52:15.614Z,95309.34
2022-08-12T09:54:43.610Z,95309.00
2022-08-12T09:58:44.655Z,95302.75
2022-08-12T10:00:17.836Z,95253.59
2022-08-12T10:03:01.331Z,95256.03
2022-08-12T10:06:26.817Z,95295.56
2022-08-12T10:08:22.494Z,95155.59
2022-08-12T10:11:20.407Z,95294.41
2022-08-12T10:13:51.418Z,95300.91
2022-08-12T10:16:22.403Z,95251.03
2022-08-12T10:18:54.646Z,95279.63
2022-08-12T10:21:36.372Z,95268.19
2022-08-12T10:24:07.257Z,95275.28
2022-08-12T10:26:54.353Z,95268.75
2022-08-12T10:30:37.781Z,95264.94
2022-08-12T10:32:43.213Z,95263.31
2022-08-12T10:35:15.777Z,95257.25
2022-08-12T10:38:34.151Z,95252.50
2022-08-12T10:40:55.403Z,95258.59
2022-08-12T10:43:54.096Z,95259.03
2022-08-12T10:46:30.576Z,95249.00
2022-08-12T10:49:06.749Z,95097.28
2022-08-12T10:52:31.157Z,95226.16
2022-08-12T10:54:43.659Z,95253.53
2022-08-12T10:58:12.515Z,95250.97
2022-08-12T11:00:35.240Z,95248.63
2022-08-12T11:04:18.688Z,95244.16
2022-08-12T11:07:09.187Z,95242.75
2022-08-12T11:08:43.626Z,95236.06
2022-08-12T11:12:07.692Z,95218.75
2022-08-12T11:14:06.305Z,95234.63
2022-08-12T11:17:06.504Z,95236.44
2022-08-12T11:19:46.372Z,95233.06
2022-08-12T11:22:14.529Z,95232.84
2022-08-12T11:24:42.533Z,95179.13
2022-08-12T11:27:21.365Z,95226.81
2022-08-12T11:30:06.426Z,95207.41
2022-08-12T11:32:38.370Z,95216.38
2022-08-12T11:35:08.331Z,95212.63
2022-08-12T11:37:59.355Z,94987.25
2022-08-12T11:40:26.626Z,95216.78
2022-08-12T11:43:17.122Z,95211.56
2022-08-12T11:45:47.207Z,95213.94
2022-08-12T11:48:15.741Z,95226.97
2022-08-12T11:50:44.540Z,95224.66
2022-08-12T11:53:58.556Z,95213.88
2022-08-12T11:56:00.641Z,95168.78
2022-08-12T11:59:59.653Z,95198.47
2022-08-12T12:02:03.066Z,95213.53
2022-08-12T12:04:06.349Z,95208.31
2022-08-12T12:06:38.382Z,95203.44
2022-08-12T12:09:08.106Z,95197.88
2022-08-12T12:11:48.745Z,95125.19
2022-08-12T12:14:18.977Z,95169.88
2022-08-12T12:17:09.201Z,95207.03
2022-08-12T12:19:39.673Z,95187.59
2022-08-12T12:22:15.700Z,95078.63
2022-08-12T12:24:51.448Z,95202.78
2022-08-12T12:28:03.876Z,95196.44
2022-08-12T12:30:18.829Z,95202.69
2022-08-12T12:32:58.310Z,95194.94
2022-08-12T12:36:06.420Z,95194.06
2022-08-12T12:38:16.233Z,95155.75
2022-08-12T12:40:50.254Z,95195.59
2022-08-12T12:43:29.043Z,95195.56
2022-08-12T12:46:08.944Z,95192.41
2022-08-12T12:48:38.830Z,95182.06
2022-08-12T12:51:48.987Z,95169.47
2022-08-12T12:54:10.013Z,95144.50
2022-08-12T12:56:42.527Z,95097.59
2022-08-12T12:59:54.394Z,95159.50
2022-08-12T13:02:08.060Z,95154.09
2022-08-12T13:04:37.650Z,95162.72
2022-08-12T13:07:06.776Z,95160.50
2022-08-12T13:09:35.908Z,95161.69
2022-08-12T13:12:08.099Z,95079.81
2022-08-12T13:14:39.894Z,95128.91
2022-08-12T13:17:11.390Z,95147.63
2022-08-12T13:19:48.254Z,95164.28
2022-08-12T13:22:20.005Z,95140.88
2022-08-12T13:24:54.785Z,95193.75
2022-08-12T13:27:35.164Z,95161.91
2022-08-12T13:30:07.002Z,95179.28
2022-08-12T13:32:41.822Z,95163.44
2022-08-12T13:35:20.420Z,95138.94
2022-08-12T13:38:02.682Z,95050.56
2022-08-12T13:40:33.700Z,95170.84
2022-08-12T13:43:06.892Z,95129.97
2022-08-12T13:45:36.851Z,95164.91
2022-08-12T13:48:07.576Z,95165.91
2022-08-12T13:50:37.498Z,95140.09
2022-08-12T13:53:24.420Z,95099.53
2022-08-12T13:55:59.731Z,95166.31
2022-08-12T13:58:33.104Z,95092.50
2022-08-12T14:01:06.362Z,95162.00
2022-08-12T14:03:50.685Z,95161.75
2022-08-12T14:06:26.014Z,95074.56
2022-08-12T14:08:59.766Z,95126.59
2022-08-12T14:11:47.930Z,95173.22
2022-08-12T14:14:26.295Z,95041.47
2022-08-12T14:16:55.247Z,95169.44
2022-08-12T14:19:31.742Z,95180.50
2022-08-12T14:22:04.947Z,95132.06
2022-08-12T14:24:40.987Z,95138.09
2022-08-12T14:27:10.930Z,95173.94
2022-08-12T14:30:05.815Z,95165.72
2022-08-12T14:32:35.327Z,95146.03
2022-08-12T14:35:08.990Z,95164.53
2022-08-12T14:37:54.971Z,95047.16
2022-08-12T14:40:28.469Z,95171.28
2022-08-12T14:42:58.037Z,94983.00
2022-08-12T14:45:44.549Z,95039.47
2022-08-12T14:48:15.363Z,95173.31
2022-08-12T14:51:02.649Z,95159.88
2022-08-12T14:59:57.877Z,95161.16
2022-08-12T15:02:20.893Z,95157.19
2022-08-12T15:04:58.716Z,95084.13
2022-08-12T15:07:34.454Z,95143.53
2022-08-12T15:10:13.408Z,95139.72
2022-08-12T15:12:41.733Z,95152.69
2022-08-12T15:15:11.268Z,95141.66
2022-08-12T15:17:40.335Z,95104.91
2022-08-12T15:20:28.661Z,95041.81
2022-08-12T15:22:59.989Z,95138.44
2022-08-12T15:25:28.645Z,95104.84
2022-08-12T15:28:03.919Z,95123.38
2022-08-12T15:30:37.215Z,95074.28
2022-08-12T15:33:12.865Z,95062.75
2022-08-12T15:35:52.287Z,95077.97
2022-08-12T15:38:25.035Z,95026.97
2022-08-12T15:40:55.134Z,95104.78
2022-08-12T15:44:16.632Z,95104.56
2022-08-12T15:46:15.336Z,95107.91
2022-08-12T15:48:47.114Z,95111.75
2022-08-12T15:51:58.567Z,95086.72
2022-08-12T15:54:34.089Z,95118.66
2022-08-12T15:57:08.026Z,95015.06
2022-08-12T16:00:03.950Z,95094.16
2022-08-12T16:02:29.300Z,95117.03
2022-08-12T16:04:58.371Z,95111.22
2022-08-12T16:07:39.509Z,95094.75
2022-08-12T16:10:10.908Z,95099.16
2022-08-12T16:12:43.256Z,95109.00
2022-08-12T16:15:13.254Z,95075.84
2022-08-12T16:18:18.433Z,94996.31
2022-08-12T16:20:33.708Z,95107.81
2022-08-12T16:23:21.442Z,95101.56
2022-08-12T16:26:05.412Z,95104.66
2022-08-12T16:28:34.656Z,95101.63
2022-08-12T16:31:03.415Z,95106.81
2022-08-12T16:33:59.207Z,95024.97
2022-08-12T16:36:25.500Z,95116.81
2022-08-12T16:38:53.675Z,95111.41
2022-08-12T16:41:23.737Z,95115.34
2022-08-12T16:43:53.448Z,95076.56
2022-08-12T16:46:31.469Z,94981.78
2022-08-12T16:49:04.159Z,94978.38
2022-08-12T16:51:46.949Z,95050.28
2022-08-12T16:54:17.242Z,95114.03
2022-08-12T16:56:51.137Z,95121.72
2022-08-12T16:59:53.575Z,95125.31
2022-08-12T17:02:31.976Z,95099.94
2022-08-12T17:05:04.705Z,95051.03
2022-08-12T17:07:36.472Z,95085.69
2022-08-12T17:10:07.119Z,95083.41
2022-08-12T17:12:39.322Z,95109.84
2022-08-12T17:15:50.707Z,95080.44
2022-08-12T17:18:39.238Z,95068.88
2022-08-12T17:20:48.422Z,95111.50
2022-08-12T17:23:18.054Z,95104.88
2022-08-12T17:25:50.291Z,95072.28
2022-08-12T17:28:21.249Z,95107.41
2022-08-12T17:31:00.092Z,95104.28
2022-08-12T17:33:33.384Z,95109.13
2022-08-12T17:36:05.775Z,95107.19
2022-08-12T17:38:35.039Z,95110.47
2022-08-12T17:41:08.275Z,95047.53
2022-08-12T17:43:58.520Z,95112.66
2022-08-12T17:46:33.746Z,95112.31
2022-08-12T17:49:18.813Z,95114.34
2022-08-12T17:52:02.913Z,94841.66
2022-08-12T17:54:31.627Z,95062.53
2022-08-12T17:57:02.512Z,95126.50
2022-08-12T17:59:48.668Z,95100.50
2022-08-12T18:02:25.646Z,95131.03
2022-08-12T18:05:05.212Z,95124.88
2022-08-12T18:07:39.539Z,95130.22
2022-08-12T18:10:08.463Z,95063.03
2022-08-12T18:12:42.743Z,94993.47
2022-08-12T18:15:47.722Z,95143.16
2022-08-12T18:18:16.625Z,95135.06
2022-08-12T18:20:46.892Z,95113.34
2022-08-12T18:23:14.930Z,95144.47
2022-08-12T18:26:14.791Z,95105.09
2022-08-12T18:28:48.341Z,95138.34
2022-08-12T18:31:22.950Z,95145.22
2022-08-12T18:33:53.279Z,95144.84
2022-08-12T18:36:22.727Z,95139.25
2022-08-12T18:38:56.076Z,95060.91
2022-08-12T18:41:35.132Z,95021.44
2022-08-12T18:44:09.260Z,95057.13
2022-08-12T18:47:01.502Z,95125.38
2022-08-12T18:49:38.838Z,95145.34
2022-08-12T18:52:11.540Z,95152.06
2022-08-12T18:54:49.070Z,95150.16
2022-08-12T18:58:05.690Z,95104.66
2022-08-12T19:00:21.315Z,95109.41
2022-08-12T19:02:53.715Z,95154.53
2022-08-12T19:05:54.362Z,95150.75
2022-08-12T19:08:14.204Z,95040.25
2022-08-12T19:10:50.378Z,95158.47
2022-08-12T19:13:38.037Z,95159.22
2022-08-12T19:16:10.764Z,95156.38
2022-08-12T19:18:44.731Z,95157.59
2022-08-12T19:21:16.253Z,95173.06
2022-08-12T19:24:05.522Z,95162.72
2022-08-12T19:26:34.469Z,95112.44
2022-08-12T19:29:05.053Z,95170.69
2022-08-12T19:31:57.473Z,95160.53
2022-08-12T19:37:27.147Z,95159.41
2022-08-12T19:40:20.458Z,95124.50
2022-08-12T19:43:01.618Z,95171.34
2022-08-12T19:45:42.406Z,95071.34
2022-08-12T19:48:18.005Z,95163.66
2022-08-12T19:50:50.183Z,95165.28
2022-08-12T19:53:22.745Z,95166.19
2022-08-12T19:55:53.860Z,95157.66
2022-08-12T19:58:23.729Z,95029.94
2022-08-12T20:00:54.374Z,95162.50
2022-08-12T20:03:39.781Z,95168.13
2022-08-12T20:06:15.839Z,95162.25
2022-08-12T20:08:48.693Z,95072.16
2022-08-12T20:12:09.715Z,95153.28
2022-08-12T20:14:14.093Z,95152.44
2022-08-12T20:16:51.646Z,95147.69
2022-08-12T20:19:23.367Z,95063.81
2022-08-12T20:21:54.940Z,95121.84
2022-08-12T20:24:23.953Z,95117.94
2022-08-12T20:27:00.235Z,95128.94
2022-08-12T20:29:35.711Z,95122.03
2022-08-12T20:32:06.028Z,95072.22
2022-08-12T20:34:39.031Z,95056.22
2022-08-12T20:37:10.285Z,95151.78
2022-08-12T20:39:52.827Z,95086.25
2022-08-12T20:42:24.421Z,95143.56
2022-08-12T20:44:59.630Z,95143.22
2022-08-12T20:47:46.838Z,95139.72
2022-08-12T20:50:15.988Z,95142.47
2022-08-12T20:52:49.390Z,95142.53
2022-08-12T20:55:19.465Z,95123.00
2022-08-12T20:58:02.733Z,95142.53
2022-08-12T21:00:33.269Z,95099.69
2022-08-12T21:03:21.184Z,95085.28
2022-08-12T21:06:13.557Z,95077.94
2022-08-12T21:08:43.965Z,95141.81
2022-08-12T21:11:12.011Z,94977.47
2022-08-12T21:13:41.795Z,95135.31
2022-08-12T21:16:10.538Z,95136.13
2022-08-12T21:18:39.512Z,95138.09
2022-08-12T21:21:24.086Z,95147.47
2022-08-12T21:23:59.011Z,95133.69
2022-08-12T21:26:28.092Z,95135.94
2022-08-12T21:29:01.165Z,95135.16
2022-08-12T21:32:39.826Z,95107.47
2022-08-12T21:34:25.974Z,95114.91
2022-08-12T21:37:01.793Z,95138.19
2022-08-12T21:39:52.359Z,95105.84
2022-08-12T21:42:20.985Z,95128.88
2022-08-12T21:45:45.888Z,95124.91
2022-08-12T21:47:43.784Z,95127.03
2022-08-12T21:50:15.395Z,95126.31
2022-08-12T21:52:43.394Z,95123.56
2022-08-12T21:55:20.362Z,95124.72
2022-08-12T21:57:53.788Z,95126.66
2022-08-12T22:00:32.584Z,95014.41
2022-08-12T22:04:01.585Z,95083.50
2022-08-12T22:06:31.768Z,95029.22
2022-08-12T22:09:15.285Z,95120.16
2022-08-12T22:11:56.721Z,95123.69
2022-08-12T22:14:28.125Z,95076.06
2022-08-12T22:16:58.622Z,95115.84
2022-08-12T22:19:28.621Z,95053.09
2022-08-12T22:21:58.432Z,95091.72
2022-08-12T22:24:30.348Z,95103.44
2022-08-12T22:27:08.020Z,95101.50
2022-08-12T22:30:07.618Z,95101.56
2022-08-12T22:32:41.913Z,95062.91
2022-08-12T22:35:29.201Z,95094.19
2022-08-12T22:37:58.850Z,95065.34
2022-08-12T22:40:26.734Z,95095.81
2022-08-12T22:43:14.581Z,95095.78
2022-08-12T22:46:01.223Z,95095.81
2022-08-12T22:48:29.167Z,95089.13
2022-08-12T22:50:59.240Z,95056.38
2022-08-12T22:53:35.859Z,95093.47
2022-08-12T22:56:08.013Z,95041.22
2022-08-12T22:58:40.800Z,95092.34
2022-08-12T23:01:13.687Z,95068.66
2022-08-12T23:03:51.110Z,95097.50
2022-08-12T23:06:25.219Z,95099.53
2022-08-12T23:08:56.287Z,95103.97
2022-08-12T23:11:25.584Z,95093.09
2022-08-12T23:14:04.316Z,95089.22
2022-08-12T23:16:34.161Z,94978.38
2022-08-12T23:19:09.592Z,95087.63
2022-08-12T23:22:04.278Z,95086.84
2022-08-12T23:24:26.794Z,95081.38
2022-08-12T23:27:44.390Z,95082.13
2022-08-12T23:30:19.121Z,95075.78
2022-08-12T23:33:00.119Z,95071.91
2022-08-12T23:35:45.686Z,94943.16
2022-08-12T23:38:30.704Z,95037.94
2022-08-12T23:41:01.275Z,95053.16
2022-08-12T23:43:39.112Z,95044.53
2022-08-12T23:46:10.572Z,95071.03
2022-08-12T23:48:40.006Z,95063.22
2022-08-12T23:51:23.333Z,95058.47
2022-08-12T23:53:55.291Z,95056.94
2022-08-12T23:56:25.227Z,95047.97
2022-08-12T23:58:57.517Z,95050.66
